PWSweather.com
Personal Weather Stations
Station Observations
KOHAVON11
Long Road Station, Avon, OH 44011

Long Road StationAvon, OH 44011

Lat: 41.437, Lon: -82.0477

Elevation: 686

Station Type: Davis Vantage Pro2

http://www.avon-weather.com

High Low Average
Temperature 80.6°F27.0°C 44.3°F6.8°C 58.0°F14.4°C
Dew Point 63.0°F17.2°C 40.9°F4.9°C 53.1°F11.7°C
Winds 16.0 mph 25.7 kmh Calm Calm 3.0 mph SSE4.8 kmh SSE
Wind Gusts 39.0 mph62.8 kmh -- 8.0 mph12.9 kmh
Humidity 90% 55% 85%
Pressure 30.14 in1020.7 mb 29.94 in1013.9 mb -
Precipitation 0.24 in6.1 mm - -
Hour Temp Dew Point Humidity Winds Wind Gusts Pressure Precip Precip Rate Daily Precip Total
12:02 AM 44.7°F7.1°C 41.1°F5.1°C 87% 3.0 mph ENE4.8 kmh ENE 16.0 mph25.7 kmh 30.14 in1020.7 mb 0.00 in0.0 mm 0.00 in0.0 mm 0.00 in0.0 mm
12:07 AM 44.7°F7.1°C 41.1°F5.1°C 87% 5.0 mph E8.0 kmh E 11.0 mph17.7 kmh 30.14 in1020.7 mb 0.00 in0.0 mm 0.00 in0.0 mm 0.00 in0.0 mm
12:12 AM 44.6°F7.0°C 41.0°F5.0°C 87% 4.0 mph E6.4 kmh E 11.0 mph17.7 kmh 30.14 in1020.7 mb 0.00 in0.0 mm 0.00 in0.0 mm 0.00 in0.0 mm
12:17 AM 44.6°F7.0°C 41.0°F5.0°C 87% Calm Calm 9.0 mph14.5 kmh 30.14 in1020.7 mb 0.00 in0.0 mm 0.00 in0.0 mm 0.00 in0.0 mm
12:22 AM 44.6°F7.0°C 41.0°F5.0°C 87% Calm Calm 9.0 mph14.5 kmh 30.14 in1020.7 mb 0.00 in0.0 mm 0.00 in0.0 mm 0.00 in0.0 mm
12:27 AM 44.6°F7.0°C 41.0°F5.0°C 87% 5.0 mph ESE8.0 kmh ESE 7.0 mph11.3 kmh 30.13 in1020.3 mb 0.00 in0.0 mm 0.00 in0.0 mm 0.00 in0.0 mm
12:32 AM 44.5°F6.9°C 40.9°F4.9°C 87% 3.0 mph ENE4.8 kmh ENE 7.0 mph11.3 kmh 30.13 in1020.3 mb 0.00 in0.0 mm 0.00 in0.0 mm 0.00 in0.0 mm
12:37 AM 44.5°F6.9°C 40.9°F4.9°C 87% Calm Calm -- 30.13 in1020.3 mb 0.00 in0.0 mm 0.00 in0.0 mm 0.00 in0.0 mm
12:42 AM 44.5°F6.9°C 40.9°F4.9°C 87% Calm Calm 3.0 mph4.8 kmh 30.13 in1020.3 mb 0.00 in0.0 mm 0.00 in0.0 mm 0.00 in0.0 mm
12:47 AM 44.6°F7.0°C 41.0°F5.0°C 87% 2.0 mph E3.2 kmh E 3.0 mph4.8 kmh 30.13 in1020.3 mb 0.00 in0.0 mm 0.00 in0.0 mm 0.00 in0.0 mm
12:52 AM 44.6°F7.0°C 41.0°F5.0°C 87% 5.0 mph ENE8.0 kmh ENE 7.0 mph11.3 kmh 30.13 in1020.3 mb 0.00 in0.0 mm 0.00 in0.0 mm 0.00 in0.0 mm
12:57 AM 44.6°F7.0°C 41.0°F5.0°C 87% Calm Calm 7.0 mph11.3 kmh 30.13 in1020.3 mb 0.00 in0.0 mm 0.00 in0.0 mm 0.00 in0.0 mm
01:02 AM 44.6°F7.0°C 41.0°F5.0°C 87% 4.0 mph ENE6.4 kmh ENE 4.0 mph6.4 kmh 30.12 in1020.0 mb 0.00 in0.0 mm 0.00 in0.0 mm 0.00 in0.0 mm
01:07 AM 44.6°F7.0°C 41.3°F5.2°C 88% 3.0 mph E4.8 kmh E 5.0 mph8.0 kmh 30.12 in1020.0 mb 0.00 in0.0 mm 0.00 in0.0 mm 0.00 in0.0 mm
01:12 AM 44.6°F7.0°C 41.3°F5.2°C 88% 2.0 mph ENE3.2 kmh ENE 2.0 mph3.2 kmh 30.12 in1020.0 mb 0.00 in0.0 mm 0.00 in0.0 mm 0.00 in0.0 mm
01:17 AM 44.7°F7.1°C 41.4°F5.2°C 88% 3.0 mph NE4.8 kmh NE 5.0 mph8.0 kmh 30.12 in1020.0 mb 0.00 in0.0 mm 0.00 in0.0 mm 0.00 in0.0 mm
01:22 AM 44.7°F7.1°C 41.4°F5.2°C 88% 1.0 mph E1.6 kmh E 5.0 mph8.0 kmh 30.12 in1020.0 mb 0.00 in0.0 mm 0.00 in0.0 mm 0.00 in0.0 mm
01:27 AM 44.7°F7.1°C 41.4°F5.2°C 88% Calm Calm 5.0 mph8.0 kmh 30.11 in1019.6 mb 0.00 in0.0 mm 0.00 in0.0 mm 0.00 in0.0 mm
01:32 AM 44.7°F7.1°C 41.4°F5.2°C 88% 4.0 mph ENE6.4 kmh ENE 4.0 mph6.4 kmh 30.11 in1019.6 mb 0.00 in0.0 mm 0.00 in0.0 mm 0.00 in0.0 mm
01:37 AM 44.7°F7.1°C 41.4°F5.2°C 88% Calm Calm 5.0 mph8.0 kmh 30.11 in1019.6 mb 0.00 in0.0 mm 0.00 in0.0 mm 0.00 in0.0 mm
01:42 AM 44.7°F7.1°C 41.4°F5.2°C 88% Calm Calm 3.0 mph4.8 kmh 30.10 in1019.3 mb 0.00 in0.0 mm 0.00 in0.0 mm 0.00 in0.0 mm
01:47 AM 44.6°F7.0°C 41.3°F5.2°C 88% Calm Calm 3.0 mph4.8 kmh 30.10 in1019.3 mb 0.00 in0.0 mm 0.00 in0.0 mm 0.00 in0.0 mm
01:52 AM 44.5°F6.9°C 41.2°F5.1°C 88% Calm Calm 4.0 mph6.4 kmh 30.10 in1019.3 mb 0.00 in0.0 mm 0.00 in0.0 mm 0.00 in0.0 mm
01:57 AM 44.5°F6.9°C 41.2°F5.1°C 88% Calm Calm 3.0 mph4.8 kmh 30.10 in1019.3 mb 0.00 in0.0 mm 0.00 in0.0 mm 0.00 in0.0 mm
02:02 AM 44.4°F6.9°C 41.1°F5.1°C 88% Calm Calm -- 30.10 in1019.3 mb 0.00 in0.0 mm 0.00 in0.0 mm 0.00 in0.0 mm
02:07 AM 44.4°F6.9°C 41.1°F5.1°C 88% Calm Calm 2.0 mph3.2 kmh 30.10 in1019.3 mb 0.00 in0.0 mm 0.00 in0.0 mm 0.00 in0.0 mm
02:12 AM 44.4°F6.9°C 41.1°F5.1°C 88% 3.0 mph ENE4.8 kmh ENE 4.0 mph6.4 kmh 30.09 in1019.0 mb 0.00 in0.0 mm 0.00 in0.0 mm 0.00 in0.0 mm
02:17 AM 44.3°F6.8°C 41.0°F5.0°C 88% 1.0 mph NE1.6 kmh NE 5.0 mph8.0 kmh 30.09 in1019.0 mb 0.00 in0.0 mm 0.00 in0.0 mm 0.00 in0.0 mm
02:22 AM 44.4°F6.9°C 41.1°F5.1°C 88% 2.0 mph NE3.2 kmh NE 5.0 mph8.0 kmh 30.09 in1019.0 mb 0.00 in0.0 mm 0.00 in0.0 mm 0.00 in0.0 mm
02:27 AM 44.4°F6.9°C 41.1°F5.1°C 88% 2.0 mph ENE3.2 kmh ENE 5.0 mph8.0 kmh 30.09 in1019.0 mb 0.00 in0.0 mm 0.00 in0.0 mm 0.00 in0.0 mm
02:32 AM 44.5°F6.9°C 41.2°F5.1°C 88% 2.0 mph ENE3.2 kmh ENE 7.0 mph11.3 kmh 30.09 in1019.0 mb 0.00 in0.0 mm 0.00 in0.0 mm 0.00 in0.0 mm
02:37 AM 44.5°F6.9°C 41.2°F5.1°C 88% 3.0 mph ENE4.8 kmh ENE 3.0 mph4.8 kmh 30.09 in1019.0 mb 0.00 in0.0 mm 0.00 in0.0 mm 0.00 in0.0 mm
02:42 AM 44.6°F7.0°C 41.3°F5.2°C 88% 3.0 mph E4.8 kmh E 6.0 mph9.7 kmh 30.08 in1018.6 mb 0.00 in0.0 mm 0.00 in0.0 mm 0.00 in0.0 mm
02:47 AM 44.6°F7.0°C 41.3°F5.2°C 88% Calm Calm -- 30.09 in1019.0 mb 0.00 in0.0 mm 0.00 in0.0 mm 0.00 in0.0 mm
02:52 AM 44.7°F7.1°C 41.4°F5.2°C 88% 2.0 mph NW3.2 kmh NW 9.0 mph14.5 kmh 30.11 in1019.6 mb 0.00 in0.0 mm 0.00 in0.0 mm 0.00 in0.0 mm
02:57 AM 44.8°F7.1°C 41.5°F5.3°C 88% 3.0 mph ENE4.8 kmh ENE 9.0 mph14.5 kmh 30.09 in1019.0 mb 0.00 in0.0 mm 0.00 in0.0 mm 0.00 in0.0 mm
03:02 AM 44.8°F7.1°C 41.8°F5.4°C 89% Calm Calm 9.0 mph14.5 kmh 30.10 in1019.3 mb 0.00 in0.0 mm 0.00 in0.0 mm 0.00 in0.0 mm
03:07 AM 44.8°F7.1°C 41.8°F5.4°C 89% 3.0 mph NNW4.8 kmh NNW 9.0 mph14.5 kmh 30.11 in1019.6 mb 0.00 in0.0 mm 0.00 in0.0 mm 0.00 in0.0 mm
03:12 AM 44.9°F7.2°C 41.9°F5.5°C 89% 2.0 mph ENE3.2 kmh ENE 4.0 mph6.4 kmh 30.10 in1019.3 mb 0.00 in0.0 mm 0.00 in0.0 mm 0.00 in0.0 mm
03:17 AM 44.9°F7.2°C 41.9°F5.5°C 89% 7.0 mph E11.3 kmh E 8.0 mph12.9 kmh 30.09 in1019.0 mb 0.00 in0.0 mm 0.00 in0.0 mm 0.00 in0.0 mm
03:22 AM 44.9°F7.2°C 41.9°F5.5°C 89% 5.0 mph NE8.0 kmh NE 9.0 mph14.5 kmh 30.09 in1019.0 mb 0.00 in0.0 mm 0.00 in0.0 mm 0.00 in0.0 mm
03:27 AM 45.0°F7.2°C 42.0°F5.6°C 89% 6.0 mph NNE9.7 kmh NNE 9.0 mph14.5 kmh 30.10 in1019.3 mb 0.00 in0.0 mm 0.00 in0.0 mm 0.00 in0.0 mm
03:32 AM 45.0°F7.2°C 42.0°F5.6°C 89% Calm Calm 1.0 mph1.6 kmh 30.09 in1019.0 mb 0.00 in0.0 mm 0.00 in0.0 mm 0.00 in0.0 mm
03:37 AM 45.2°F7.3°C 42.2°F5.7°C 89% 3.0 mph NE4.8 kmh NE 3.0 mph4.8 kmh 30.08 in1018.6 mb 0.00 in0.0 mm 0.00 in0.0 mm 0.00 in0.0 mm
03:42 AM 45.2°F7.3°C 42.2°F5.7°C 89% Calm Calm 3.0 mph4.8 kmh 30.09 in1019.0 mb 0.00 in0.0 mm 0.00 in0.0 mm 0.00 in0.0 mm
03:47 AM 45.2°F7.3°C 42.2°F5.7°C 89% Calm Calm 4.0 mph6.4 kmh 30.09 in1019.0 mb 0.00 in0.0 mm 0.00 in0.0 mm 0.00 in0.0 mm
03:52 AM 45.3°F7.4°C 42.3°F5.7°C 89% Calm Calm 4.0 mph6.4 kmh 30.09 in1019.0 mb 0.00 in0.0 mm 0.00 in0.0 mm 0.00 in0.0 mm
03:57 AM 45.4°F7.4°C 42.4°F5.8°C 89% 1.0 mph ENE1.6 kmh ENE 5.0 mph8.0 kmh 30.08 in1018.6 mb 0.00 in0.0 mm 0.00 in0.0 mm 0.00 in0.0 mm
04:02 AM 45.4°F7.4°C 42.4°F5.8°C 89% Calm Calm -- 30.08 in1018.6 mb 0.00 in0.0 mm 0.00 in0.0 mm 0.00 in0.0 mm
04:07 AM 45.5°F7.5°C 42.4°F5.8°C 89% Calm Calm -- 30.08 in1018.6 mb 0.00 in0.0 mm 0.00 in0.0 mm 0.00 in0.0 mm
04:12 AM 45.7°F7.6°C 42.6°F5.9°C 89% Calm Calm 3.0 mph4.8 kmh 30.08 in1018.6 mb 0.00 in0.0 mm 0.00 in0.0 mm 0.00 in0.0 mm
04:17 AM 45.7°F7.6°C 42.6°F5.9°C 89% 3.0 mph ENE4.8 kmh ENE 4.0 mph6.4 kmh 30.08 in1018.6 mb 0.00 in0.0 mm 0.00 in0.0 mm 0.00 in0.0 mm
04:22 AM 45.7°F7.6°C 42.6°F5.9°C 89% 2.0 mph E3.2 kmh E 4.0 mph6.4 kmh 30.08 in1018.6 mb 0.00 in0.0 mm 0.00 in0.0 mm 0.00 in0.0 mm
04:27 AM 45.8°F7.7°C 42.7°F5.9°C 89% Calm Calm 4.0 mph6.4 kmh 30.07 in1018.3 mb 0.00 in0.0 mm 0.00 in0.0 mm 0.00 in0.0 mm
04:32 AM 45.8°F7.7°C 42.7°F5.9°C 89% Calm Calm -- 30.07 in1018.3 mb 0.00 in0.0 mm 0.00 in0.0 mm 0.00 in0.0 mm
04:37 AM 45.8°F7.7°C 42.7°F5.9°C 89% Calm Calm 2.0 mph3.2 kmh 30.07 in1018.3 mb 0.00 in0.0 mm 0.00 in0.0 mm 0.00 in0.0 mm
04:42 AM 45.9°F7.7°C 42.8°F6.0°C 89% Calm Calm 2.0 mph3.2 kmh 30.07 in1018.3 mb 0.00 in0.0 mm 0.00 in0.0 mm 0.00 in0.0 mm
04:47 AM 45.9°F7.7°C 42.8°F6.0°C 89% Calm Calm -- 30.07 in1018.3 mb 0.00 in0.0 mm 0.00 in0.0 mm 0.00 in0.0 mm
04:52 AM 46.0°F7.8°C 42.9°F6.1°C 89% Calm Calm 3.0 mph4.8 kmh 30.07 in1018.3 mb 0.00 in0.0 mm 0.00 in0.0 mm 0.00 in0.0 mm
04:57 AM 46.0°F7.8°C 42.9°F6.1°C 89% Calm Calm 5.0 mph8.0 kmh 30.07 in1018.3 mb 0.00 in0.0 mm 0.00 in0.0 mm 0.00 in0.0 mm
05:02 AM 46.1°F7.8°C 43.0°F6.1°C 89% Calm Calm -- 30.07 in1018.3 mb 0.00 in0.0 mm 0.00 in0.0 mm 0.00 in0.0 mm
05:07 AM 46.1°F7.8°C 43.0°F6.1°C 89% Calm Calm -- 30.07 in1018.3 mb 0.00 in0.0 mm 0.00 in0.0 mm 0.00 in0.0 mm
05:12 AM 46.1°F7.8°C 43.0°F6.1°C 89% Calm Calm -- 30.06 in1017.9 mb 0.00 in0.0 mm 0.00 in0.0 mm 0.00 in0.0 mm
05:17 AM 46.1°F7.8°C 43.0°F6.1°C 89% Calm Calm 1.0 mph1.6 kmh 30.06 in1017.9 mb 0.00 in0.0 mm 0.00 in0.0 mm 0.00 in0.0 mm
05:22 AM 46.1°F7.8°C 43.0°F6.1°C 89% Calm Calm 3.0 mph4.8 kmh 30.06 in1017.9 mb 0.00 in0.0 mm 0.00 in0.0 mm 0.00 in0.0 mm
05:27 AM 46.2°F7.9°C 43.1°F6.2°C 89% Calm Calm -- 30.06 in1017.9 mb 0.00 in0.0 mm 0.00 in0.0 mm 0.00 in0.0 mm
05:32 AM 46.2°F7.9°C 43.1°F6.2°C 89% Calm Calm -- 30.06 in1017.9 mb 0.00 in0.0 mm 0.00 in0.0 mm 0.00 in0.0 mm
05:37 AM 46.2°F7.9°C 43.1°F6.2°C 89% Calm Calm -- 30.05 in1017.6 mb 0.00 in0.0 mm 0.00 in0.0 mm 0.00 in0.0 mm
05:42 AM 46.3°F7.9°C 43.2°F6.2°C 89% Calm Calm -- 30.05 in1017.6 mb 0.00 in0.0 mm 0.00 in0.0 mm 0.00 in0.0 mm
05:47 AM 46.3°F7.9°C 43.2°F6.2°C 89% Calm Calm -- 30.05 in1017.6 mb 0.00 in0.0 mm 0.00 in0.0 mm 0.00 in0.0 mm
05:52 AM 46.4°F8.0°C 43.3°F6.3°C 89% Calm Calm -- 30.05 in1017.6 mb 0.00 in0.0 mm 0.00 in0.0 mm 0.00 in0.0 mm
05:57 AM 46.4°F8.0°C 43.3°F6.3°C 89% Calm Calm -- 30.05 in1017.6 mb 0.00 in0.0 mm 0.00 in0.0 mm 0.00 in0.0 mm
06:02 AM 46.4°F8.0°C 43.3°F6.3°C 89% Calm Calm -- 30.05 in1017.6 mb 0.00 in0.0 mm 0.00 in0.0 mm 0.00 in0.0 mm
06:07 AM 46.5°F8.1°C 43.4°F6.3°C 89% Calm Calm -- 30.05 in1017.6 mb 0.00 in0.0 mm 0.00 in0.0 mm 0.00 in0.0 mm
06:12 AM 46.7°F8.2°C 43.6°F6.4°C 89% Calm Calm -- 30.05 in1017.6 mb 0.00 in0.0 mm 0.00 in0.0 mm 0.00 in0.0 mm
06:17 AM 47.0°F8.3°C 43.9°F6.6°C 89% 2.0 mph SE3.2 kmh SE 2.0 mph3.2 kmh 30.05 in1017.6 mb 0.00 in0.0 mm 0.00 in0.0 mm 0.00 in0.0 mm
06:22 AM 47.5°F8.6°C 44.4°F6.9°C 89% 1.0 mph E1.6 kmh E 3.0 mph4.8 kmh 30.04 in1017.3 mb 0.00 in0.0 mm 0.00 in0.0 mm 0.00 in0.0 mm
06:27 AM 48.1°F8.9°C 45.3°F7.4°C 90% Calm Calm 1.0 mph1.6 kmh 30.04 in1017.3 mb 0.00 in0.0 mm 0.00 in0.0 mm 0.00 in0.0 mm
06:32 AM 48.6°F9.2°C 45.5°F7.5°C 89% 2.0 mph ESE3.2 kmh ESE 4.0 mph6.4 kmh 30.04 in1017.3 mb 0.00 in0.0 mm 0.00 in0.0 mm 0.00 in0.0 mm
06:37 AM 49.0°F9.4°C 45.9°F7.7°C 89% Calm Calm -- 30.05 in1017.6 mb 0.00 in0.0 mm 0.00 in0.0 mm 0.00 in0.0 mm
06:42 AM 49.5°F9.7°C 46.7°F8.2°C 90% Calm Calm 3.0 mph4.8 kmh 30.04 in1017.3 mb 0.00 in0.0 mm 0.00 in0.0 mm 0.00 in0.0 mm
06:47 AM 50.1°F10.1°C 47.3°F8.5°C 90% Calm Calm 4.0 mph6.4 kmh 30.04 in1017.3 mb 0.00 in0.0 mm 0.00 in0.0 mm 0.00 in0.0 mm
06:52 AM 50.6°F10.3°C 47.8°F8.8°C 90% Calm Calm -- 30.05 in1017.6 mb 0.00 in0.0 mm 0.00 in0.0 mm 0.00 in0.0 mm
06:57 AM 51.1°F10.6°C 48.3°F9.1°C 90% Calm Calm 4.0 mph6.4 kmh 30.05 in1017.6 mb 0.00 in0.0 mm 0.00 in0.0 mm 0.00 in0.0 mm
07:02 AM 51.6°F10.9°C 48.8°F9.3°C 90% Calm Calm 2.0 mph3.2 kmh 30.04 in1017.3 mb 0.00 in0.0 mm 0.00 in0.0 mm 0.00 in0.0 mm
07:07 AM 52.2°F11.2°C 49.3°F9.6°C 90% 4.0 mph SSE6.4 kmh SSE 5.0 mph8.0 kmh 30.04 in1017.3 mb 0.00 in0.0 mm 0.00 in0.0 mm 0.00 in0.0 mm
07:12 AM 52.8°F11.6°C 49.9°F9.9°C 90% Calm Calm 5.0 mph8.0 kmh 30.04 in1017.3 mb 0.00 in0.0 mm 0.00 in0.0 mm 0.00 in0.0 mm
07:17 AM 53.4°F11.9°C 50.5°F10.3°C 90% Calm Calm 2.0 mph3.2 kmh 30.04 in1017.3 mb 0.00 in0.0 mm 0.00 in0.0 mm 0.00 in0.0 mm
07:22 AM 54.0°F12.2°C 51.1°F10.6°C 90% 2.0 mph SE3.2 kmh SE 3.0 mph4.8 kmh 30.04 in1017.3 mb 0.00 in0.0 mm 0.00 in0.0 mm 0.00 in0.0 mm
07:27 AM 54.7°F12.6°C 51.8°F11.0°C 90% Calm Calm 5.0 mph8.0 kmh 30.04 in1017.3 mb 0.00 in0.0 mm 0.00 in0.0 mm 0.00 in0.0 mm
07:32 AM 55.3°F12.9°C 52.4°F11.3°C 90% Calm Calm 5.0 mph8.0 kmh 30.04 in1017.3 mb 0.00 in0.0 mm 0.00 in0.0 mm 0.00 in0.0 mm
07:37 AM 56.1°F13.4°C 53.2°F11.8°C 90% 1.0 mph SE1.6 kmh SE 8.0 mph12.9 kmh 30.04 in1017.3 mb 0.00 in0.0 mm 0.00 in0.0 mm 0.00 in0.0 mm
07:42 AM 56.7°F13.7°C 53.8°F12.1°C 90% Calm Calm 8.0 mph12.9 kmh 30.03 in1016.9 mb 0.00 in0.0 mm 0.00 in0.0 mm 0.00 in0.0 mm
07:47 AM 57.2°F14.0°C 54.3°F12.4°C 90% Calm Calm 8.0 mph12.9 kmh 30.03 in1016.9 mb 0.00 in0.0 mm 0.00 in0.0 mm 0.00 in0.0 mm
07:52 AM 57.7°F14.3°C 54.8°F12.7°C 90% Calm Calm -- 30.03 in1016.9 mb 0.00 in0.0 mm 0.00 in0.0 mm 0.00 in0.0 mm
07:57 AM 58.2°F14.6°C 55.3°F12.9°C 90% Calm Calm 6.0 mph9.7 kmh 30.03 in1016.9 mb 0.00 in0.0 mm 0.00 in0.0 mm 0.00 in0.0 mm
08:02 AM 58.6°F14.8°C 55.6°F13.1°C 90% 3.0 mph SSW4.8 kmh SSW 7.0 mph11.3 kmh 30.03 in1016.9 mb 0.00 in0.0 mm 0.00 in0.0 mm 0.00 in0.0 mm
08:07 AM 59.7°F15.4°C 56.7°F13.7°C 90% 2.0 mph S3.2 kmh S 10.0 mph16.1 kmh 30.03 in1016.9 mb 0.00 in0.0 mm 0.00 in0.0 mm 0.00 in0.0 mm
08:12 AM 60.6°F15.9°C 57.3°F14.1°C 89% 2.0 mph S3.2 kmh S 12.0 mph19.3 kmh 30.03 in1016.9 mb 0.00 in0.0 mm 0.00 in0.0 mm 0.00 in0.0 mm
08:17 AM 61.6°F16.4°C 58.3°F14.6°C 89% 3.0 mph SE4.8 kmh SE 12.0 mph19.3 kmh 30.03 in1016.9 mb 0.00 in0.0 mm 0.00 in0.0 mm 0.00 in0.0 mm
08:22 AM 62.4°F16.9°C 58.4°F14.7°C 87% 11.0 mph S17.7 kmh S 13.0 mph20.9 kmh 30.02 in1016.6 mb 0.00 in0.0 mm 0.00 in0.0 mm 0.00 in0.0 mm
08:27 AM 63.3°F17.4°C 59.0°F15.0°C 86% 7.0 mph S11.3 kmh S 15.0 mph24.1 kmh 30.02 in1016.6 mb 0.00 in0.0 mm 0.00 in0.0 mm 0.00 in0.0 mm
08:32 AM 64.2°F17.9°C 59.2°F15.1°C 84% 9.0 mph S14.5 kmh S 15.0 mph24.1 kmh 30.02 in1016.6 mb 0.00 in0.0 mm 0.00 in0.0 mm 0.00 in0.0 mm
08:37 AM 65.0°F18.3°C 59.3°F15.2°C 82% 15.0 mph S24.1 kmh S 20.0 mph32.2 kmh 30.02 in1016.6 mb 0.00 in0.0 mm 0.00 in0.0 mm 0.00 in0.0 mm
08:42 AM 65.9°F18.8°C 59.1°F15.1°C 79% 14.0 mph SSW22.5 kmh SSW 20.0 mph32.2 kmh 30.02 in1016.6 mb 0.00 in0.0 mm 0.00 in0.0 mm 0.00 in0.0 mm
08:47 AM 66.5°F19.2°C 58.9°F14.9°C 77% 15.0 mph S24.1 kmh S 20.0 mph32.2 kmh 30.02 in1016.6 mb 0.00 in0.0 mm 0.00 in0.0 mm 0.00 in0.0 mm
08:52 AM 66.8°F19.3°C 58.8°F14.9°C 76% 5.0 mph S8.0 kmh S 20.0 mph32.2 kmh 30.02 in1016.6 mb 0.00 in0.0 mm 0.00 in0.0 mm 0.00 in0.0 mm
08:57 AM 67.1°F19.5°C 58.7°F14.8°C 75% 10.0 mph SSW16.1 kmh SSW 18.0 mph29.0 kmh 30.01 in1016.3 mb 0.00 in0.0 mm 0.00 in0.0 mm 0.00 in0.0 mm
09:02 AM 67.3°F19.6°C 58.5°F14.7°C 74% 6.0 mph S9.7 kmh S 18.0 mph29.0 kmh 30.01 in1016.3 mb 0.00 in0.0 mm 0.00 in0.0 mm 0.00 in0.0 mm
09:07 AM 67.5°F19.7°C 58.7°F14.8°C 74% 8.0 mph S12.9 kmh S 18.0 mph29.0 kmh 30.01 in1016.3 mb 0.00 in0.0 mm 0.00 in0.0 mm 0.00 in0.0 mm
09:12 AM 67.9°F19.9°C 59.1°F15.1°C 74% 6.0 mph S9.7 kmh S 19.0 mph30.6 kmh 30.01 in1016.3 mb 0.00 in0.0 mm 0.00 in0.0 mm 0.00 in0.0 mm
09:17 AM 68.2°F20.1°C 59.4°F15.2°C 74% 13.0 mph S20.9 kmh S 19.0 mph30.6 kmh 30.01 in1016.3 mb 0.00 in0.0 mm 0.00 in0.0 mm 0.00 in0.0 mm
09:22 AM 68.4°F20.2°C 59.2°F15.1°C 73% 11.0 mph SSW17.7 kmh SSW 19.0 mph30.6 kmh 30.01 in1016.3 mb 0.00 in0.0 mm 0.00 in0.0 mm 0.00 in0.0 mm
09:27 AM 68.5°F20.3°C 59.3°F15.2°C 73% 6.0 mph S9.7 kmh S 19.0 mph30.6 kmh 30.01 in1016.3 mb 0.00 in0.0 mm 0.00 in0.0 mm 0.00 in0.0 mm
09:32 AM 68.8°F20.4°C 59.6°F15.3°C 73% 5.0 mph S8.0 kmh S 21.0 mph33.8 kmh 30.01 in1016.3 mb 0.00 in0.0 mm 0.00 in0.0 mm 0.00 in0.0 mm
09:37 AM 69.1°F20.6°C 59.5°F15.3°C 72% 7.0 mph S11.3 kmh S 21.0 mph33.8 kmh 30.00 in1015.9 mb 0.00 in0.0 mm 0.00 in0.0 mm 0.00 in0.0 mm
09:42 AM 69.5°F20.8°C 59.8°F15.4°C 72% 11.0 mph SSW17.7 kmh SSW 21.0 mph33.8 kmh 30.00 in1015.9 mb 0.00 in0.0 mm 0.00 in0.0 mm 0.00 in0.0 mm
09:47 AM 69.9°F21.1°C 60.2°F15.7°C 72% 5.0 mph S8.0 kmh S 21.0 mph33.8 kmh 30.00 in1015.9 mb 0.00 in0.0 mm 0.00 in0.0 mm 0.00 in0.0 mm
09:52 AM 70.2°F21.2°C 60.1°F15.6°C 71% 16.0 mph S25.7 kmh S 20.0 mph32.2 kmh 30.00 in1015.9 mb 0.00 in0.0 mm 0.00 in0.0 mm 0.00 in0.0 mm
09:57 AM 70.5°F21.4°C 60.4°F15.8°C 71% 12.0 mph S19.3 kmh S 20.0 mph32.2 kmh 30.00 in1015.9 mb 0.00 in0.0 mm 0.00 in0.0 mm 0.00 in0.0 mm
10:02 AM 70.8°F21.6°C 60.7°F15.9°C 71% 9.0 mph SSW14.5 kmh SSW 18.0 mph29.0 kmh 29.99 in1015.6 mb 0.00 in0.0 mm 0.00 in0.0 mm 0.00 in0.0 mm
10:07 AM 71.2°F21.8°C 60.7°F15.9°C 70% 14.0 mph SSE22.5 kmh SSE 25.0 mph40.2 kmh 29.99 in1015.6 mb 0.00 in0.0 mm 0.00 in0.0 mm 0.00 in0.0 mm
10:12 AM 71.5°F21.9°C 61.4°F16.3°C 71% 11.0 mph SSW17.7 kmh SSW 25.0 mph40.2 kmh 29.99 in1015.6 mb 0.00 in0.0 mm 0.00 in0.0 mm 0.00 in0.0 mm
10:17 AM 71.8°F22.1°C 61.2°F16.2°C 70% 7.0 mph S11.3 kmh S 25.0 mph40.2 kmh 29.99 in1015.6 mb 0.00 in0.0 mm 0.00 in0.0 mm 0.00 in0.0 mm
10:22 AM 72.0°F22.2°C 61.4°F16.3°C 70% 12.0 mph S19.3 kmh S 25.0 mph40.2 kmh 29.99 in1015.6 mb 0.00 in0.0 mm 0.00 in0.0 mm 0.00 in0.0 mm
10:27 AM 72.3°F22.4°C 61.7°F16.5°C 70% 9.0 mph SE14.5 kmh SE 20.0 mph32.2 kmh 29.98 in1015.2 mb 0.00 in0.0 mm 0.00 in0.0 mm 0.00 in0.0 mm
10:32 AM 72.6°F22.6°C 62.0°F16.7°C 70% 5.0 mph S8.0 kmh S 20.0 mph32.2 kmh 29.98 in1015.2 mb 0.00 in0.0 mm 0.00 in0.0 mm 0.00 in0.0 mm
10:37 AM 72.9°F22.7°C 61.9°F16.6°C 69% 8.0 mph S12.9 kmh S 17.0 mph27.4 kmh 29.98 in1015.2 mb 0.00 in0.0 mm 0.00 in0.0 mm 0.00 in0.0 mm
10:42 AM 73.2°F22.9°C 62.6°F17.0°C 70% 9.0 mph S14.5 kmh S 17.0 mph27.4 kmh 29.98 in1015.2 mb 0.00 in0.0 mm 0.00 in0.0 mm 0.00 in0.0 mm
10:47 AM 73.7°F23.2°C 62.6°F17.0°C 69% 5.0 mph S8.0 kmh S 20.0 mph32.2 kmh 29.98 in1015.2 mb 0.00 in0.0 mm 0.00 in0.0 mm 0.00 in0.0 mm
10:52 AM 74.1°F23.4°C 63.0°F17.2°C 69% 8.0 mph SW12.9 kmh SW 20.0 mph32.2 kmh 29.98 in1015.2 mb 0.00 in0.0 mm 0.00 in0.0 mm 0.00 in0.0 mm
10:57 AM 74.4°F23.6°C 62.4°F16.9°C 67% 5.0 mph SW8.0 kmh SW 20.0 mph32.2 kmh 29.97 in1014.9 mb 0.00 in0.0 mm 0.00 in0.0 mm 0.00 in0.0 mm
11:02 AM 75.1°F23.9°C 61.7°F16.5°C 64% 9.0 mph SW14.5 kmh SW 22.0 mph35.4 kmh 29.97 in1014.9 mb 0.00 in0.0 mm 0.00 in0.0 mm 0.00 in0.0 mm
11:07 AM 76.1°F24.5°C 61.7°F16.5°C 62% 8.0 mph SW12.9 kmh SW 22.0 mph35.4 kmh 29.97 in1014.9 mb 0.00 in0.0 mm 0.00 in0.0 mm 0.00 in0.0 mm
11:12 AM 77.6°F25.3°C 62.2°F16.8°C 60% 11.0 mph SW17.7 kmh SW 22.0 mph35.4 kmh 29.97 in1014.9 mb 0.00 in0.0 mm 0.00 in0.0 mm 0.00 in0.0 mm
11:17 AM 78.3°F25.7°C 62.3°F16.8°C 59% 9.0 mph SW14.5 kmh SW 26.0 mph41.8 kmh 29.97 in1014.9 mb 0.00 in0.0 mm 0.00 in0.0 mm 0.01 in0.3 mm
11:22 AM 78.2°F25.7°C 61.8°F16.6°C 58% 8.0 mph WSW12.9 kmh WSW 26.0 mph41.8 kmh 29.97 in1014.9 mb 0.00 in0.0 mm 0.00 in0.0 mm 0.01 in0.3 mm
11:27 AM 77.9°F25.5°C 61.5°F16.4°C 58% 16.0 mph 25.7 kmh 26.0 mph41.8 kmh 29.97 in1014.9 mb 0.00 in0.0 mm 0.00 in0.0 mm 0.01 in0.3 mm
11:32 AM 78.0°F25.6°C 62.1°F16.7°C 59% 9.0 mph SW14.5 kmh SW 26.0 mph41.8 kmh 29.97 in1014.9 mb 0.00 in0.0 mm 0.00 in0.0 mm 0.01 in0.3 mm
11:37 AM 77.6°F25.3°C 61.7°F16.5°C 59% 9.0 mph SW14.5 kmh SW 23.0 mph37.0 kmh 29.97 in1014.9 mb 0.00 in0.0 mm 0.00 in0.0 mm 0.01 in0.3 mm
11:42 AM 77.4°F25.2°C 61.5°F16.4°C 59% 8.0 mph S12.9 kmh S 23.0 mph37.0 kmh 29.96 in1014.6 mb 0.00 in0.0 mm 0.00 in0.0 mm 0.01 in0.3 mm
12:47 PM 79.7°F26.5°C 62.1°F16.7°C 56% 6.0 mph SW9.7 kmh SW 39.0 mph62.8 kmh 29.94 in1013.9 mb 0.00 in0.0 mm 0.00 in0.0 mm 0.01 in0.3 mm
12:52 PM 79.9°F26.6°C 61.8°F16.6°C 55% 12.0 mph SW19.3 kmh SW 39.0 mph62.8 kmh 29.94 in1013.9 mb 0.00 in0.0 mm 0.00 in0.0 mm 0.01 in0.3 mm
12:57 PM 79.4°F26.3°C 61.3°F16.3°C 55% 6.0 mph WSW9.7 kmh WSW 39.0 mph62.8 kmh 29.94 in1013.9 mb 0.00 in0.0 mm 0.00 in0.0 mm 0.01 in0.3 mm
01:02 PM 79.9°F26.6°C 61.8°F16.6°C 55% 7.0 mph SW11.3 kmh SW 31.0 mph49.9 kmh 29.94 in1013.9 mb 0.00 in0.0 mm 0.00 in0.0 mm 0.01 in0.3 mm
01:07 PM 80.6°F27.0°C 62.4°F16.9°C 55% 6.0 mph SSW9.7 kmh SSW 31.0 mph49.9 kmh 29.94 in1013.9 mb 0.00 in0.0 mm 0.00 in0.0 mm 0.01 in0.3 mm
03:57 PM 63.5°F17.5°C 57.8°F14.3°C 82% 11.0 mph 17.7 kmh 19.0 mph30.6 kmh 30.00 in1015.9 mb 0.06 in1.5 mm 0.07 in1.8 mm 0.03 in0.8 mm
04:02 PM 62.9°F17.2°C 57.6°F14.2°C 83% 5.0 mph 8.0 kmh 12.0 mph19.3 kmh 30.00 in1015.9 mb 0.05 in1.3 mm 0.00 in0.0 mm 0.04 in1.0 mm
04:07 PM 62.6°F17.0°C 57.6°F14.2°C 84% 6.0 mph 9.7 kmh 12.0 mph19.3 kmh 29.99 in1015.6 mb 0.08 in2.0 mm 0.36 in9.1 mm 0.05 in1.3 mm
04:12 PM 62.5°F16.9°C 57.8°F14.3°C 85% 8.0 mph 12.9 kmh 11.0 mph17.7 kmh 30.00 in1015.9 mb 0.08 in2.0 mm 0.00 in0.0 mm 0.05 in1.3 mm
04:17 PM 62.4°F16.9°C 58.1°F14.5°C 86% 8.0 mph 12.9 kmh 13.0 mph20.9 kmh 30.00 in1015.9 mb 0.05 in1.3 mm 0.00 in0.0 mm 0.05 in1.3 mm
04:22 PM 62.3°F16.8°C 58.0°F14.4°C 86% 2.0 mph 3.2 kmh 13.0 mph20.9 kmh 30.00 in1015.9 mb 0.04 in1.0 mm 0.00 in0.0 mm 0.05 in1.3 mm
04:27 PM 62.3°F16.8°C 58.0°F14.4°C 86% 4.0 mph 6.4 kmh 13.0 mph20.9 kmh 30.00 in1015.9 mb 0.00 in0.0 mm 0.00 in0.0 mm 0.05 in1.3 mm
04:32 PM 62.4°F16.9°C 58.1°F14.5°C 86% 2.0 mph 3.2 kmh 13.0 mph20.9 kmh 30.00 in1015.9 mb 0.00 in0.0 mm 0.00 in0.0 mm 0.05 in1.3 mm
04:37 PM 62.6°F17.0°C 58.6°F14.8°C 87% 3.0 mph 4.8 kmh 8.0 mph12.9 kmh 30.00 in1015.9 mb 0.00 in0.0 mm 0.00 in0.0 mm 0.05 in1.3 mm
04:42 PM 62.8°F17.1°C 58.8°F14.9°C 87% 4.0 mph 6.4 kmh 10.0 mph16.1 kmh 30.01 in1016.3 mb 0.00 in0.0 mm 0.00 in0.0 mm 0.05 in1.3 mm
04:47 PM 62.8°F17.1°C 58.8°F14.9°C 87% 1.0 mph 1.6 kmh 10.0 mph16.1 kmh 30.01 in1016.3 mb 0.00 in0.0 mm 0.00 in0.0 mm 0.05 in1.3 mm
04:52 PM 62.9°F17.2°C 58.9°F14.9°C 87% 4.0 mph 6.4 kmh 17.0 mph27.4 kmh 30.01 in1016.3 mb 0.00 in0.0 mm 0.00 in0.0 mm 0.05 in1.3 mm
04:57 PM 63.1°F17.3°C 59.1°F15.1°C 87% 11.0 mph 17.7 kmh 17.0 mph27.4 kmh 30.01 in1016.3 mb 0.00 in0.0 mm 0.00 in0.0 mm 0.06 in1.5 mm
05:02 PM 63.3°F17.4°C 59.3°F15.2°C 87% 12.0 mph 19.3 kmh 17.0 mph27.4 kmh 30.02 in1016.6 mb 0.00 in0.0 mm 0.00 in0.0 mm 0.06 in1.5 mm
05:07 PM 63.6°F17.6°C 59.6°F15.3°C 87% 2.0 mph 3.2 kmh 17.0 mph27.4 kmh 30.02 in1016.6 mb 0.00 in0.0 mm 0.00 in0.0 mm 0.06 in1.5 mm
05:12 PM 63.8°F17.7°C 59.8°F15.4°C 87% 5.0 mph WSW8.0 kmh WSW 12.0 mph19.3 kmh 30.02 in1016.6 mb 0.00 in0.0 mm 0.00 in0.0 mm 0.06 in1.5 mm
05:17 PM 63.9°F17.7°C 59.9°F15.5°C 87% 7.0 mph SW11.3 kmh SW 12.0 mph19.3 kmh 30.02 in1016.6 mb 0.00 in0.0 mm 0.00 in0.0 mm 0.06 in1.5 mm
05:22 PM 64.0°F17.8°C 60.0°F15.6°C 87% 6.0 mph W9.7 kmh W 12.0 mph19.3 kmh 30.02 in1016.6 mb 0.00 in0.0 mm 0.00 in0.0 mm 0.06 in1.5 mm
05:27 PM 64.0°F17.8°C 60.0°F15.6°C 87% 7.0 mph WSW11.3 kmh WSW 12.0 mph19.3 kmh 30.03 in1016.9 mb 0.00 in0.0 mm 0.00 in0.0 mm 0.06 in1.5 mm
05:32 PM 64.0°F17.8°C 60.0°F15.6°C 87% 6.0 mph W9.7 kmh W 10.0 mph16.1 kmh 30.02 in1016.6 mb 0.33 in8.4 mm 3.96 in100.6 mm 0.08 in2.0 mm
05:37 PM 63.8°F17.7°C 59.8°F15.4°C 87% 4.0 mph SW6.4 kmh SW 10.0 mph16.1 kmh 30.02 in1016.6 mb 0.18 in4.6 mm 0.00 in0.0 mm 0.10 in2.5 mm
05:42 PM 63.7°F17.6°C 59.7°F15.4°C 87% 3.0 mph WSW4.8 kmh WSW 10.0 mph16.1 kmh 30.02 in1016.6 mb 0.39 in9.9 mm 2.52 in64.0 mm 0.10 in2.5 mm
05:47 PM 63.5°F17.5°C 59.5°F15.3°C 87% 3.0 mph WSW4.8 kmh WSW 10.0 mph16.1 kmh 30.02 in1016.6 mb 0.19 in4.8 mm 0.00 in0.0 mm 0.14 in3.6 mm
05:52 PM 63.4°F17.4°C 59.4°F15.2°C 87% 4.0 mph SW6.4 kmh SW 10.0 mph16.1 kmh 30.02 in1016.6 mb 0.07 in1.8 mm 0.00 in0.0 mm 0.14 in3.6 mm
05:57 PM 63.3°F17.4°C 59.3°F15.2°C 87% 4.0 mph WSW6.4 kmh WSW 10.0 mph16.1 kmh 30.02 in1016.6 mb 0.05 in1.3 mm 0.00 in0.0 mm 0.14 in3.6 mm
06:02 PM 63.3°F17.4°C 59.3°F15.2°C 87% 2.0 mph WSW3.2 kmh WSW 10.0 mph16.1 kmh 30.02 in1016.6 mb 0.00 in0.0 mm 0.00 in0.0 mm 0.14 in3.6 mm
06:07 PM 63.2°F17.3°C 59.5°F15.3°C 88% 3.0 mph SW4.8 kmh SW 7.0 mph11.3 kmh 30.02 in1016.6 mb 0.00 in0.0 mm 0.00 in0.0 mm 0.14 in3.6 mm
06:12 PM 63.2°F17.3°C 59.5°F15.3°C 88% 2.0 mph SW3.2 kmh SW 7.0 mph11.3 kmh 30.02 in1016.6 mb 0.00 in0.0 mm 0.00 in0.0 mm 0.14 in3.6 mm
06:17 PM 63.1°F17.3°C 59.4°F15.2°C 88% 5.0 mph SSW8.0 kmh SSW 7.0 mph11.3 kmh 30.02 in1016.6 mb 0.00 in0.0 mm 0.00 in0.0 mm 0.14 in3.6 mm
06:22 PM 63.1°F17.3°C 59.4°F15.2°C 88% 5.0 mph S8.0 kmh S 8.0 mph12.9 kmh 30.03 in1016.9 mb 0.00 in0.0 mm 0.00 in0.0 mm 0.14 in3.6 mm
06:27 PM 63.0°F17.2°C 59.3°F15.2°C 88% 4.0 mph SW6.4 kmh SW 8.0 mph12.9 kmh 30.03 in1016.9 mb 0.00 in0.0 mm 0.00 in0.0 mm 0.14 in3.6 mm
06:32 PM 63.0°F17.2°C 59.3°F15.2°C 88% 3.0 mph SW4.8 kmh SW 9.0 mph14.5 kmh 30.03 in1016.9 mb 0.00 in0.0 mm 0.00 in0.0 mm 0.14 in3.6 mm
06:37 PM 62.9°F17.2°C 59.2°F15.1°C 88% 5.0 mph SSW8.0 kmh SSW 11.0 mph17.7 kmh 30.03 in1016.9 mb 0.00 in0.0 mm 0.00 in0.0 mm 0.14 in3.6 mm
06:42 PM 62.9°F17.2°C 59.2°F15.1°C 88% 2.0 mph SW3.2 kmh SW 11.0 mph17.7 kmh 30.03 in1016.9 mb 0.00 in0.0 mm 0.00 in0.0 mm 0.14 in3.6 mm
06:47 PM 62.9°F17.2°C 59.2°F15.1°C 88% 2.0 mph SW3.2 kmh SW 11.0 mph17.7 kmh 30.03 in1016.9 mb 0.00 in0.0 mm 0.00 in0.0 mm 0.14 in3.6 mm
06:52 PM 62.8°F17.1°C 59.1°F15.1°C 88% 7.0 mph S11.3 kmh S 11.0 mph17.7 kmh 30.03 in1016.9 mb 0.00 in0.0 mm 0.00 in0.0 mm 0.14 in3.6 mm
06:57 PM 62.8°F17.1°C 59.1°F15.1°C 88% 3.0 mph SW4.8 kmh SW 9.0 mph14.5 kmh 30.04 in1017.3 mb 0.00 in0.0 mm 0.00 in0.0 mm 0.14 in3.6 mm
07:02 PM 62.8°F17.1°C 59.1°F15.1°C 88% 4.0 mph S6.4 kmh S 9.0 mph14.5 kmh 30.04 in1017.3 mb 0.00 in0.0 mm 0.00 in0.0 mm 0.14 in3.6 mm
07:07 PM 62.9°F17.2°C 59.2°F15.1°C 88% 7.0 mph SSW11.3 kmh SSW 9.0 mph14.5 kmh 30.04 in1017.3 mb 0.00 in0.0 mm 0.00 in0.0 mm 0.14 in3.6 mm
07:12 PM 62.9°F17.2°C 59.2°F15.1°C 88% 1.0 mph SW1.6 kmh SW 10.0 mph16.1 kmh 30.04 in1017.3 mb 0.00 in0.0 mm 0.00 in0.0 mm 0.14 in3.6 mm
07:17 PM 62.9°F17.2°C 59.2°F15.1°C 88% Calm Calm -- 30.04 in1017.3 mb 0.00 in0.0 mm 0.00 in0.0 mm 0.14 in3.6 mm
07:22 PM 62.9°F17.2°C 59.2°F15.1°C 88% Calm Calm -- 30.04 in1017.3 mb 0.16 in4.1 mm 1.92 in48.8 mm 0.16 in4.1 mm
07:27 PM 62.8°F17.1°C 59.1°F15.1°C 88% Calm Calm -- 30.05 in1017.6 mb 0.09 in2.3 mm 0.00 in0.0 mm 0.16 in4.1 mm
07:32 PM 62.8°F17.1°C 59.1°F15.1°C 88% Calm Calm -- 30.05 in1017.6 mb 0.05 in1.3 mm 0.00 in0.0 mm 0.16 in4.1 mm
07:37 PM 62.8°F17.1°C 59.1°F15.1°C 88% Calm Calm -- 30.05 in1017.6 mb 0.04 in1.0 mm 0.00 in0.0 mm 0.16 in4.1 mm
07:42 PM 62.7°F17.1°C 59.0°F15.0°C 88% Calm Calm -- 30.06 in1017.9 mb 0.00 in0.0 mm 0.00 in0.0 mm 0.17 in4.3 mm
07:47 PM 62.7°F17.1°C 59.0°F15.0°C 88% Calm Calm -- 30.06 in1017.9 mb 0.14 in3.6 mm 1.68 in42.7 mm 0.18 in4.6 mm
07:52 PM 62.7°F17.1°C 59.0°F15.0°C 88% 3.0 mph SW4.8 kmh SW 8.0 mph12.9 kmh 30.06 in1017.9 mb 0.08 in2.0 mm 0.00 in0.0 mm 0.18 in4.6 mm
07:57 PM 62.6°F17.0°C 58.9°F14.9°C 88% 5.0 mph S8.0 kmh S 8.0 mph12.9 kmh 30.06 in1017.9 mb 0.10 in2.5 mm 0.24 in6.1 mm 0.19 in4.8 mm
08:02 PM 62.6°F17.0°C 58.9°F14.9°C 88% Calm Calm 8.0 mph12.9 kmh 30.05 in1017.6 mb 0.10 in2.5 mm 0.00 in0.0 mm 0.20 in5.1 mm
08:07 PM 62.5°F16.9°C 58.8°F14.9°C 88% Calm Calm -- 30.05 in1017.6 mb 0.06 in1.5 mm 0.00 in0.0 mm 0.20 in5.1 mm
08:12 PM 62.4°F16.9°C 58.7°F14.8°C 88% Calm Calm 3.0 mph4.8 kmh 30.04 in1017.3 mb 0.06 in1.5 mm 0.00 in0.0 mm 0.21 in5.3 mm
08:17 PM 62.4°F16.9°C 58.7°F14.8°C 88% Calm Calm -- 30.04 in1017.3 mb 0.06 in1.5 mm 0.00 in0.0 mm 0.21 in5.3 mm
08:22 PM 62.3°F16.8°C 59.0°F15.0°C 89% Calm Calm -- 30.05 in1017.6 mb 0.04 in1.0 mm 0.00 in0.0 mm 0.21 in5.3 mm
08:27 PM 62.3°F16.8°C 59.0°F15.0°C 89% Calm Calm -- 30.05 in1017.6 mb 0.00 in0.0 mm 0.00 in0.0 mm 0.21 in5.3 mm
08:32 PM 62.2°F16.8°C 58.9°F14.9°C 89% Calm Calm -- 30.05 in1017.6 mb 0.00 in0.0 mm 0.00 in0.0 mm 0.21 in5.3 mm
08:37 PM 62.2°F16.8°C 58.9°F14.9°C 89% Calm Calm -- 30.05 in1017.6 mb 0.00 in0.0 mm 0.00 in0.0 mm 0.21 in5.3 mm
08:42 PM 62.1°F16.7°C 58.8°F14.9°C 89% Calm Calm -- 30.05 in1017.6 mb 0.00 in0.0 mm 0.00 in0.0 mm 0.21 in5.3 mm
08:47 PM 62.1°F16.7°C 58.8°F14.9°C 89% Calm Calm 3.0 mph4.8 kmh 30.06 in1017.9 mb 0.00 in0.0 mm 0.00 in0.0 mm 0.21 in5.3 mm
08:52 PM 62.0°F16.7°C 58.7°F14.8°C 89% Calm Calm -- 30.07 in1018.3 mb 0.00 in0.0 mm 0.00 in0.0 mm 0.21 in5.3 mm
08:57 PM 61.9°F16.6°C 58.6°F14.8°C 89% Calm Calm -- 30.07 in1018.3 mb 0.00 in0.0 mm 0.00 in0.0 mm 0.21 in5.3 mm
09:02 PM 61.9°F16.6°C 58.6°F14.8°C 89% Calm Calm 6.0 mph9.7 kmh 30.07 in1018.3 mb 0.00 in0.0 mm 0.00 in0.0 mm 0.22 in5.6 mm
09:07 PM 61.9°F16.6°C 58.6°F14.8°C 89% Calm Calm -- 30.07 in1018.3 mb 0.00 in0.0 mm 0.00 in0.0 mm 0.22 in5.6 mm
09:12 PM 61.9°F16.6°C 58.6°F14.8°C 89% Calm Calm 5.0 mph8.0 kmh 30.07 in1018.3 mb 0.00 in0.0 mm 0.00 in0.0 mm 0.22 in5.6 mm
09:17 PM 61.9°F16.6°C 58.6°F14.8°C 89% Calm Calm 1.0 mph1.6 kmh 30.07 in1018.3 mb 0.00 in0.0 mm 0.00 in0.0 mm 0.22 in5.6 mm
09:22 PM 61.9°F16.6°C 58.6°F14.8°C 89% 3.0 mph S4.8 kmh S 5.0 mph8.0 kmh 30.07 in1018.3 mb 0.00 in0.0 mm 0.00 in0.0 mm 0.23 in5.8 mm
09:27 PM 61.9°F16.6°C 58.6°F14.8°C 89% Calm Calm -- 30.07 in1018.3 mb 0.00 in0.0 mm 0.00 in0.0 mm 0.23 in5.8 mm
09:32 PM 61.8°F16.6°C 58.5°F14.7°C 89% Calm Calm -- 30.07 in1018.3 mb 0.06 in1.5 mm 0.72 in18.3 mm 0.24 in6.1 mm
09:37 PM 61.8°F16.6°C 58.5°F14.7°C 89% Calm Calm 3.0 mph4.8 kmh 30.06 in1017.9 mb 0.06 in1.5 mm 0.00 in0.0 mm 0.24 in6.1 mm
09:42 PM 61.8°F16.6°C 58.5°F14.7°C 89% Calm Calm -- 30.06 in1017.9 mb 0.05 in1.3 mm 0.00 in0.0 mm 0.24 in6.1 mm
09:47 PM 61.7°F16.5°C 58.4°F14.7°C 89% Calm Calm -- 30.06 in1017.9 mb 0.00 in0.0 mm 0.00 in0.0 mm 0.24 in6.1 mm
09:52 PM 61.7°F16.5°C 58.4°F14.7°C 89% Calm Calm -- 30.05 in1017.6 mb 0.00 in0.0 mm 0.00 in0.0 mm 0.24 in6.1 mm
09:57 PM 61.6°F16.4°C 58.3°F14.6°C 89% Calm Calm -- 30.05 in1017.6 mb 0.00 in0.0 mm 0.00 in0.0 mm 0.24 in6.1 mm
10:02 PM 61.6°F16.4°C 58.3°F14.6°C 89% Calm Calm -- 30.05 in1017.6 mb 0.00 in0.0 mm 0.00 in0.0 mm 0.24 in6.1 mm
10:07 PM 61.5°F16.4°C 58.2°F14.6°C 89% 3.0 mph S4.8 kmh S 4.0 mph6.4 kmh 30.05 in1017.6 mb 0.00 in0.0 mm 0.00 in0.0 mm 0.24 in6.1 mm
10:12 PM 61.5°F16.4°C 58.2°F14.6°C 89% Calm Calm -- 30.05 in1017.6 mb 0.00 in0.0 mm 0.00 in0.0 mm 0.24 in6.1 mm
10:17 PM 61.5°F16.4°C 58.2°F14.6°C 89% Calm Calm -- 30.05 in1017.6 mb 0.00 in0.0 mm 0.00 in0.0 mm 0.24 in6.1 mm
10:22 PM 61.4°F16.3°C 58.1°F14.5°C 89% Calm Calm -- 30.05 in1017.6 mb 0.00 in0.0 mm 0.00 in0.0 mm 0.24 in6.1 mm
10:27 PM 61.4°F16.3°C 58.1°F14.5°C 89% Calm Calm -- 30.05 in1017.6 mb 0.00 in0.0 mm 0.00 in0.0 mm 0.24 in6.1 mm
10:32 PM 61.3°F16.3°C 58.0°F14.4°C 89% Calm Calm -- 30.04 in1017.3 mb 0.00 in0.0 mm 0.00 in0.0 mm 0.24 in6.1 mm
10:37 PM 61.3°F16.3°C 58.0°F14.4°C 89% Calm Calm -- 30.04 in1017.3 mb 0.00 in0.0 mm 0.00 in0.0 mm 0.24 in6.1 mm
10:42 PM 61.2°F16.2°C 57.9°F14.4°C 89% Calm Calm -- 30.04 in1017.3 mb 0.00 in0.0 mm 0.00 in0.0 mm 0.24 in6.1 mm
10:47 PM 61.2°F16.2°C 57.9°F14.4°C 89% Calm Calm -- 30.05 in1017.6 mb 0.00 in0.0 mm 0.00 in0.0 mm 0.24 in6.1 mm
10:52 PM 61.2°F16.2°C 57.9°F14.4°C 89% Calm Calm -- 30.05 in1017.6 mb 0.00 in0.0 mm 0.00 in0.0 mm 0.24 in6.1 mm
10:57 PM 61.3°F16.3°C 58.0°F14.4°C 89% Calm Calm 3.0 mph4.8 kmh 30.05 in1017.6 mb 0.00 in0.0 mm 0.00 in0.0 mm 0.24 in6.1 mm
11:02 PM 61.2°F16.2°C 57.9°F14.4°C 89% Calm Calm -- 30.05 in1017.6 mb 0.00 in0.0 mm 0.00 in0.0 mm 1.01 in25.7 mm
11:07 PM 61.2°F16.2°C 57.9°F14.4°C 89% Calm Calm -- 30.05 in1017.6 mb 0.00 in0.0 mm 0.00 in0.0 mm 1.01 in25.7 mm
11:12 PM 61.2°F16.2°C 57.9°F14.4°C 89% Calm Calm -- 30.05 in1017.6 mb 0.00 in0.0 mm 0.00 in0.0 mm 1.01 in25.7 mm
11:17 PM 61.2°F16.2°C 57.9°F14.4°C 89% Calm Calm -- 30.05 in1017.6 mb 0.00 in0.0 mm 0.00 in0.0 mm 1.01 in25.7 mm
11:22 PM 61.2°F16.2°C 57.9°F14.4°C 89% Calm Calm -- 30.05 in1017.6 mb 0.00 in0.0 mm 0.00 in0.0 mm 1.01 in25.7 mm
11:27 PM 61.2°F16.2°C 57.9°F14.4°C 89% 4.0 mph SW6.4 kmh SW 5.0 mph8.0 kmh 30.06 in1017.9 mb 0.00 in0.0 mm 0.00 in0.0 mm 1.01 in25.7 mm
11:32 PM 61.2°F16.2°C 57.9°F14.4°C 89% 2.0 mph S3.2 kmh S 7.0 mph11.3 kmh 30.07 in1018.3 mb 0.00 in0.0 mm 0.00 in0.0 mm 1.01 in25.7 mm
11:37 PM 61.1°F16.2°C 57.8°F14.3°C 89% 3.0 mph S4.8 kmh S 7.0 mph11.3 kmh 30.06 in1017.9 mb 0.05 in1.3 mm 0.60 in15.2 mm 1.06 in26.9 mm
11:42 PM 61.2°F16.2°C 57.9°F14.4°C 89% 2.0 mph SSW3.2 kmh SSW 7.0 mph11.3 kmh 30.06 in1017.9 mb 0.05 in1.3 mm 0.00 in0.0 mm 1.06 in26.9 mm
11:47 PM 61.2°F16.2°C 58.2°F14.6°C 90% 4.0 mph S6.4 kmh S 7.0 mph11.3 kmh 30.06 in1017.9 mb 0.09 in2.3 mm 0.48 in12.2 mm 1.10 in27.9 mm
11:52 PM 61.2°F16.2°C 58.2°F14.6°C 90% 1.0 mph S1.6 kmh S 6.0 mph9.7 kmh 30.06 in1017.9 mb 0.07 in1.8 mm 0.00 in0.0 mm 1.10 in27.9 mm
11:57 PM 61.2°F16.2°C 58.2°F14.6°C 90% Calm Calm 7.0 mph11.3 kmh 30.06 in1017.9 mb 0.04 in1.0 mm 0.00 in0.0 mm 1.10 in27.9 mm